sensor_id;sensor_type;location;lat;lon;timestamp;P1;durP1;ratioP1;P2;durP2;ratioP2
19187;SDS011;9726;52.198;8.792;2022-12-18T00:02:23;145.33;;;65.67;;
19187;SDS011;9726;52.198;8.792;2022-12-18T00:04:50;139.50;;;63.10;;
19187;SDS011;9726;52.198;8.792;2022-12-18T00:07:18;151.57;;;61.23;;
19187;SDS011;9726;52.198;8.792;2022-12-18T00:09:45;156.73;;;65.83;;
19187;SDS011;9726;52.198;8.792;2022-12-18T00:12:12;153.37;;;61.83;;
19187;SDS011;9726;52.198;8.792;2022-12-18T00:14:41;154.70;;;64.17;;
19187;SDS011;9726;52.198;8.792;2022-12-18T00:17:09;154.57;;;65.70;;
19187;SDS011;9726;52.198;8.792;2022-12-18T00:19:36;153.03;;;63.67;;
19187;SDS011;9726;52.198;8.792;2022-12-18T00:22:03;148.03;;;64.73;;
19187;SDS011;9726;52.198;8.792;2022-12-18T00:24:32;161.83;;;64.30;;
19187;SDS011;9726;52.198;8.792;2022-12-18T00:26:59;147.57;;;59.40;;
19187;SDS011;9726;52.198;8.792;2022-12-18T00:29:26;153.60;;;63.53;;
19187;SDS011;9726;52.198;8.792;2022-12-18T00:31:54;166.93;;;63.50;;
19187;SDS011;9726;52.198;8.792;2022-12-18T00:34:21;148.30;;;62.10;;
19187;SDS011;9726;52.198;8.792;2022-12-18T00:36:51;140.63;;;62.83;;
19187;SDS011;9726;52.198;8.792;2022-12-18T00:39:18;154.00;;;64.07;;
19187;SDS011;9726;52.198;8.792;2022-12-18T00:41:45;138.63;;;59.90;;
19187;SDS011;9726;52.198;8.792;2022-12-18T00:44:31;149.57;;;66.17;;
19187;SDS011;9726;52.198;8.792;2022-12-18T00:46:58;136.73;;;58.57;;
19187;SDS011;9726;52.198;8.792;2022-12-18T00:49:26;153.70;;;62.70;;
19187;SDS011;9726;52.198;8.792;2022-12-18T00:51:54;158.87;;;60.17;;
19187;SDS011;9726;52.198;8.792;2022-12-18T00:54:21;154.73;;;61.60;;
19187;SDS011;9726;52.198;8.792;2022-12-18T00:56:49;140.90;;;57.30;;
19187;SDS011;9726;52.198;8.792;2022-12-18T00:59:17;131.00;;;54.73;;
19187;SDS011;9726;52.198;8.792;2022-12-18T01:01:44;135.70;;;55.07;;
19187;SDS011;9726;52.198;8.792;2022-12-18T01:04:12;136.17;;;57.53;;
19187;SDS011;9726;52.198;8.792;2022-12-18T01:06:43;136.20;;;57.63;;
19187;SDS011;9726;52.198;8.792;2022-12-18T01:09:10;139.87;;;56.00;;
19187;SDS011;9726;52.198;8.792;2022-12-18T01:11:37;126.97;;;56.13;;
19187;SDS011;9726;52.198;8.792;2022-12-18T01:14:05;121.80;;;54.20;;
19187;SDS011;9726;52.198;8.792;2022-12-18T01:16:32;134.43;;;58.77;;
19187;SDS011;9726;52.198;8.792;2022-12-18T01:18:59;140.57;;;57.20;;
19187;SDS011;9726;52.198;8.792;2022-12-18T01:21:27;118.23;;;53.83;;
19187;SDS011;9726;52.198;8.792;2022-12-18T01:23:55;139.53;;;54.93;;
19187;SDS011;9726;52.198;8.792;2022-12-18T01:26:23;125.00;;;54.23;;
19187;SDS011;9726;52.198;8.792;2022-12-18T01:28:50;165.70;;;59.60;;
19187;SDS011;9726;52.198;8.792;2022-12-18T01:31:20;138.17;;;57.37;;
19187;SDS011;9726;52.198;8.792;2022-12-18T01:33:47;132.90;;;57.23;;
19187;SDS011;9726;52.198;8.792;2022-12-18T01:36:16;124.33;;;51.60;;
19187;SDS011;9726;52.198;8.792;2022-12-18T01:38:43;133.30;;;54.73;;
19187;SDS011;9726;52.198;8.792;2022-12-18T01:41:11;137.93;;;61.23;;
19187;SDS011;9726;52.198;8.792;2022-12-18T01:46:08;140.60;;;55.50;;
19187;SDS011;9726;52.198;8.792;2022-12-18T01:48:36;137.17;;;56.57;;
19187;SDS011;9726;52.198;8.792;2022-12-18T01:51:04;136.40;;;56.57;;
19187;SDS011;9726;52.198;8.792;2022-12-18T01:53:33;141.47;;;54.63;;
19187;SDS011;9726;52.198;8.792;2022-12-18T01:56:00;125.77;;;53.53;;
19187;SDS011;9726;52.198;8.792;2022-12-18T02:01:14;137.97;;;51.67;;
19187;SDS011;9726;52.198;8.792;2022-12-18T02:03:42;133.93;;;54.37;;
19187;SDS011;9726;52.198;8.792;2022-12-18T02:06:11;123.57;;;52.53;;
19187;SDS011;9726;52.198;8.792;2022-12-18T02:08:46;133.03;;;55.97;;
19187;SDS011;9726;52.198;8.792;2022-12-18T02:13:59;125.77;;;53.40;;
19187;SDS011;9726;52.198;8.792;2022-12-18T02:19:00;120.43;;;52.73;;
19187;SDS011;9726;52.198;8.792;2022-12-18T02:21:35;120.13;;;48.60;;
19187;SDS011;9726;52.198;8.792;2022-12-18T02:24:12;115.83;;;51.53;;
19187;SDS011;9726;52.198;8.792;2022-12-18T02:26:43;131.00;;;53.03;;
19187;SDS011;9726;52.198;8.792;2022-12-18T02:29:22;113.43;;;50.03;;
19187;SDS011;9726;52.198;8.792;2022-12-18T02:31:56;135.37;;;52.23;;
19187;SDS011;9726;52.198;8.792;2022-12-18T02:34:26;120.53;;;51.77;;
19187;SDS011;9726;52.198;8.792;2022-12-18T02:36:54;133.97;;;50.37;;
19187;SDS011;9726;52.198;8.792;2022-12-18T02:39:22;113.20;;;49.23;;
19187;SDS011;9726;52.198;8.792;2022-12-18T02:41:57;125.17;;;48.70;;
19187;SDS011;9726;52.198;8.792;2022-12-18T02:44:25;121.00;;;47.47;;
19187;SDS011;9726;52.198;8.792;2022-12-18T02:46:53;106.20;;;45.03;;
19187;SDS011;9726;52.198;8.792;2022-12-18T02:49:39;121.03;;;48.13;;
19187;SDS011;9726;52.198;8.792;2022-12-18T02:57:33;116.20;;;47.07;;
19187;SDS011;9726;52.198;8.792;2022-12-18T03:00:07;115.73;;;47.27;;
19187;SDS011;9726;52.198;8.792;2022-12-18T03:02:44;117.33;;;48.10;;
19187;SDS011;9726;52.198;8.792;2022-12-18T03:07:58;134.87;;;45.07;;
19187;SDS011;9726;52.198;8.792;2022-12-18T03:10:31;107.53;;;43.60;;
19187;SDS011;9726;52.198;8.792;2022-12-18T03:13:03;102.87;;;44.57;;
19187;SDS011;9726;52.198;8.792;2022-12-18T03:15:34;128.30;;;49.20;;
19187;SDS011;9726;52.198;8.792;2022-12-18T03:18:11;97.20;;;42.40;;
19187;SDS011;9726;52.198;8.792;2022-12-18T03:20:39;105.20;;;41.57;;
19187;SDS011;9726;52.198;8.792;2022-12-18T03:23:12;113.13;;;45.23;;
19187;SDS011;9726;52.198;8.792;2022-12-18T03:25:44;114.03;;;44.27;;
19187;SDS011;9726;52.198;8.792;2022-12-18T03:28:14;99.13;;;43.00;;
19187;SDS011;9726;52.198;8.792;2022-12-18T03:30:43;117.27;;;46.37;;
19187;SDS011;9726;52.198;8.792;2022-12-18T03:33:16;100.00;;;40.93;;
19187;SDS011;9726;52.198;8.792;2022-12-18T03:35:48;108.23;;;42.67;;
19187;SDS011;9726;52.198;8.792;2022-12-18T03:38:16;99.43;;;39.40;;
19187;SDS011;9726;52.198;8.792;2022-12-18T03:46:00;97.40;;;39.93;;
19187;SDS011;9726;52.198;8.792;2022-12-18T03:48:31;88.40;;;38.83;;
19187;SDS011;9726;52.198;8.792;2022-12-18T03:51:11;91.77;;;39.90;;
19187;SDS011;9726;52.198;8.792;2022-12-18T03:53:55;100.47;;;37.63;;
19187;SDS011;9726;52.198;8.792;2022-12-18T03:56:29;103.37;;;38.87;;
19187;SDS011;9726;52.198;8.792;2022-12-18T03:59:01;92.37;;;37.90;;
19187;SDS011;9726;52.198;8.792;2022-12-18T04:01:32;92.77;;;38.83;;
19187;SDS011;9726;52.198;8.792;2022-12-18T04:04:01;88.73;;;37.70;;
19187;SDS011;9726;52.198;8.792;2022-12-18T04:06:32;95.93;;;34.97;;
19187;SDS011;9726;52.198;8.792;2022-12-18T04:09:01;85.87;;;36.87;;
19187;SDS011;9726;52.198;8.792;2022-12-18T04:11:30;96.87;;;35.47;;
19187;SDS011;9726;52.198;8.792;2022-12-18T04:14:00;103.80;;;36.27;;
19187;SDS011;9726;52.198;8.792;2022-12-18T04:16:32;90.13;;;34.80;;
19187;SDS011;9726;52.198;8.792;2022-12-18T04:19:02;89.93;;;37.37;;
19187;SDS011;9726;52.198;8.792;2022-12-18T04:21:36;91.90;;;34.47;;
19187;SDS011;9726;52.198;8.792;2022-12-18T04:24:04;66.23;;;30.10;;
19187;SDS011;9726;52.198;8.792;2022-12-18T04:26:33;84.93;;;33.13;;
19187;SDS011;9726;52.198;8.792;2022-12-18T04:29:15;74.43;;;32.83;;
19187;SDS011;9726;52.198;8.792;2022-12-18T04:31:43;76.47;;;31.73;;
19187;SDS011;9726;52.198;8.792;2022-12-18T04:34:10;92.77;;;36.27;;
19187;SDS011;9726;52.198;8.792;2022-12-18T04:36:44;81.30;;;31.10;;
19187;SDS011;9726;52.198;8.792;2022-12-18T04:39:12;75.23;;;32.43;;
19187;SDS011;9726;52.198;8.792;2022-12-18T04:41:40;83.27;;;32.33;;
19187;SDS011;9726;52.198;8.792;2022-12-18T04:44:08;77.17;;;30.37;;
19187;SDS011;9726;52.198;8.792;2022-12-18T04:46:35;74.37;;;29.17;;
19187;SDS011;9726;52.198;8.792;2022-12-18T04:49:03;63.93;;;24.10;;
19187;SDS011;9726;52.198;8.792;2022-12-18T04:51:30;53.53;;;23.30;;
19187;SDS011;9726;52.198;8.792;2022-12-18T04:53:57;52.87;;;22.90;;
19187;SDS011;9726;52.198;8.792;2022-12-18T04:56:24;62.87;;;23.53;;
19187;SDS011;9726;52.198;8.792;2022-12-18T04:58:52;48.67;;;23.03;;
19187;SDS011;9726;52.198;8.792;2022-12-18T05:01:19;53.30;;;23.30;;
19187;SDS011;9726;52.198;8.792;2022-12-18T05:03:46;62.63;;;25.33;;
19187;SDS011;9726;52.198;8.792;2022-12-18T05:06:14;54.13;;;24.03;;
19187;SDS011;9726;52.198;8.792;2022-12-18T05:08:41;56.97;;;25.67;;
19187;SDS011;9726;52.198;8.792;2022-12-18T05:11:10;67.30;;;27.57;;
19187;SDS011;9726;52.198;8.792;2022-12-18T05:13:38;60.27;;;26.53;;
19187;SDS011;9726;52.198;8.792;2022-12-18T05:16:06;58.20;;;23.67;;
19187;SDS011;9726;52.198;8.792;2022-12-18T05:18:33;47.50;;;20.73;;
19187;SDS011;9726;52.198;8.792;2022-12-18T05:21:01;52.57;;;21.73;;
19187;SDS011;9726;52.198;8.792;2022-12-18T05:23:28;53.83;;;22.23;;
19187;SDS011;9726;52.198;8.792;2022-12-18T05:26:00;61.47;;;23.50;;
19187;SDS011;9726;52.198;8.792;2022-12-18T05:28:28;45.43;;;21.03;;
19187;SDS011;9726;52.198;8.792;2022-12-18T05:30:57;50.27;;;20.50;;
19187;SDS011;9726;52.198;8.792;2022-12-18T05:33:25;48.43;;;19.37;;
19187;SDS011;9726;52.198;8.792;2022-12-18T05:35:53;52.03;;;19.77;;
19187;SDS011;9726;52.198;8.792;2022-12-18T05:38:22;50.77;;;19.63;;
19187;SDS011;9726;52.198;8.792;2022-12-18T05:40:50;49.37;;;20.63;;
19187;SDS011;9726;52.198;8.792;2022-12-18T05:43:17;36.30;;;18.43;;
19187;SDS011;9726;52.198;8.792;2022-12-18T05:45:47;35.63;;;17.90;;
19187;SDS011;9726;52.198;8.792;2022-12-18T05:48:15;43.67;;;17.33;;
19187;SDS011;9726;52.198;8.792;2022-12-18T05:50:43;39.67;;;16.23;;
19187;SDS011;9726;52.198;8.792;2022-12-18T05:53:12;42.30;;;15.27;;
19187;SDS011;9726;52.198;8.792;2022-12-18T05:55:39;41.90;;;14.67;;
19187;SDS011;9726;52.198;8.792;2022-12-18T05:58:07;42.33;;;18.17;;
19187;SDS011;9726;52.198;8.792;2022-12-18T06:00:37;39.80;;;16.30;;
19187;SDS011;9726;52.198;8.792;2022-12-18T06:03:08;48.03;;;17.57;;
19187;SDS011;9726;52.198;8.792;2022-12-18T06:05:36;43.67;;;18.90;;
19187;SDS011;9726;52.198;8.792;2022-12-18T06:08:04;51.43;;;18.23;;
19187;SDS011;9726;52.198;8.792;2022-12-18T06:10:31;42.37;;;17.03;;
19187;SDS011;9726;52.198;8.792;2022-12-18T06:12:59;45.10;;;16.40;;
19187;SDS011;9726;52.198;8.792;2022-12-18T06:15:26;37.33;;;16.50;;
19187;SDS011;9726;52.198;8.792;2022-12-18T06:17:54;45.03;;;16.97;;
19187;SDS011;9726;52.198;8.792;2022-12-18T06:20:21;39.63;;;16.00;;
19187;SDS011;9726;52.198;8.792;2022-12-18T06:22:49;41.67;;;16.20;;
19187;SDS011;9726;52.198;8.792;2022-12-18T06:25:16;42.57;;;14.63;;
19187;SDS011;9726;52.198;8.792;2022-12-18T06:27:44;29.77;;;12.80;;
19187;SDS011;9726;52.198;8.792;2022-12-18T06:30:12;39.17;;;15.03;;
19187;SDS011;9726;52.198;8.792;2022-12-18T06:32:40;27.90;;;13.37;;
19187;SDS011;9726;52.198;8.792;2022-12-18T06:35:07;35.77;;;14.67;;
19187;SDS011;9726;52.198;8.792;2022-12-18T06:37:35;29.63;;;14.60;;
19187;SDS011;9726;52.198;8.792;2022-12-18T06:40:02;35.40;;;13.73;;
19187;SDS011;9726;52.198;8.792;2022-12-18T06:42:29;28.53;;;13.73;;
19187;SDS011;9726;52.198;8.792;2022-12-18T06:44:58;26.17;;;13.07;;
19187;SDS011;9726;52.198;8.792;2022-12-18T06:47:25;28.97;;;12.67;;
19187;SDS011;9726;52.198;8.792;2022-12-18T06:49:52;27.30;;;14.77;;
19187;SDS011;9726;52.198;8.792;2022-12-18T06:52:20;33.57;;;13.63;;
19187;SDS011;9726;52.198;8.792;2022-12-18T06:54:47;29.90;;;14.57;;
19187;SDS011;9726;52.198;8.792;2022-12-18T06:57:14;37.77;;;16.07;;
19187;SDS011;9726;52.198;8.792;2022-12-18T06:59:41;36.67;;;15.70;;
19187;SDS011;9726;52.198;8.792;2022-12-18T07:02:10;38.13;;;15.27;;
19187;SDS011;9726;52.198;8.792;2022-12-18T07:04:38;42.60;;;16.97;;
19187;SDS011;9726;52.198;8.792;2022-12-18T07:07:06;45.50;;;20.93;;
19187;SDS011;9726;52.198;8.792;2022-12-18T07:09:33;83.10;;;34.07;;
19187;SDS011;9726;52.198;8.792;2022-12-18T07:12:00;52.37;;;21.93;;
19187;SDS011;9726;52.198;8.792;2022-12-18T07:14:28;33.93;;;16.40;;
19187;SDS011;9726;52.198;8.792;2022-12-18T07:16:55;41.67;;;17.33;;
19187;SDS011;9726;52.198;8.792;2022-12-18T07:19:22;41.37;;;19.17;;
19187;SDS011;9726;52.198;8.792;2022-12-18T07:21:50;32.60;;;15.77;;
19187;SDS011;9726;52.198;8.792;2022-12-18T07:24:17;37.50;;;15.97;;
19187;SDS011;9726;52.198;8.792;2022-12-18T07:26:45;32.30;;;14.93;;
19187;SDS011;9726;52.198;8.792;2022-12-18T07:29:12;44.00;;;17.00;;
19187;SDS011;9726;52.198;8.792;2022-12-18T07:31:40;37.03;;;16.90;;
19187;SDS011;9726;52.198;8.792;2022-12-18T07:34:11;35.00;;;15.60;;
19187;SDS011;9726;52.198;8.792;2022-12-18T07:36:38;30.73;;;16.00;;
19187;SDS011;9726;52.198;8.792;2022-12-18T07:39:06;51.97;;;16.60;;
19187;SDS011;9726;52.198;8.792;2022-12-18T07:41:33;31.77;;;15.07;;
19187;SDS011;9726;52.198;8.792;2022-12-18T07:44:11;38.23;;;16.20;;
19187;SDS011;9726;52.198;8.792;2022-12-18T07:46:38;47.83;;;19.63;;
19187;SDS011;9726;52.198;8.792;2022-12-18T07:49:05;42.73;;;16.47;;
19187;SDS011;9726;52.198;8.792;2022-12-18T07:51:33;36.57;;;16.07;;
19187;SDS011;9726;52.198;8.792;2022-12-18T07:54:00;38.53;;;15.60;;
19187;SDS011;9726;52.198;8.792;2022-12-18T07:56:27;34.03;;;15.33;;
19187;SDS011;9726;52.198;8.792;2022-12-18T07:58:57;40.83;;;14.27;;
19187;SDS011;9726;52.198;8.792;2022-12-18T08:01:24;38.83;;;16.30;;
19187;SDS011;9726;52.198;8.792;2022-12-18T08:03:52;36.53;;;15.20;;
19187;SDS011;9726;52.198;8.792;2022-12-18T08:06:19;45.93;;;16.07;;
19187;SDS011;9726;52.198;8.792;2022-12-18T08:08:53;38.07;;;14.70;;
19187;SDS011;9726;52.198;8.792;2022-12-18T08:11:21;35.87;;;16.40;;
19187;SDS011;9726;52.198;8.792;2022-12-18T08:13:48;33.27;;;15.10;;
19187;SDS011;9726;52.198;8.792;2022-12-18T08:16:16;32.13;;;15.50;;
19187;SDS011;9726;52.198;8.792;2022-12-18T08:18:44;32.53;;;15.70;;
19187;SDS011;9726;52.198;8.792;2022-12-18T08:21:13;43.10;;;19.00;;
19187;SDS011;9726;52.198;8.792;2022-12-18T08:23:41;39.90;;;17.57;;
19187;SDS011;9726;52.198;8.792;2022-12-18T08:26:10;49.53;;;18.70;;
19187;SDS011;9726;52.198;8.792;2022-12-18T08:28:37;54.10;;;22.80;;
19187;SDS011;9726;52.198;8.792;2022-12-18T08:31:04;46.40;;;19.90;;
19187;SDS011;9726;52.198;8.792;2022-12-18T08:33:32;54.50;;;21.00;;
19187;SDS011;9726;52.198;8.792;2022-12-18T08:36:00;51.53;;;20.43;;
19187;SDS011;9726;52.198;8.792;2022-12-18T08:38:27;47.50;;;19.20;;
19187;SDS011;9726;52.198;8.792;2022-12-18T08:41:01;56.13;;;21.70;;
19187;SDS011;9726;52.198;8.792;2022-12-18T08:43:28;53.33;;;18.63;;
19187;SDS011;9726;52.198;8.792;2022-12-18T08:46:14;51.03;;;20.07;;
19187;SDS011;9726;52.198;8.792;2022-12-18T08:48:42;48.60;;;19.10;;
19187;SDS011;9726;52.198;8.792;2022-12-18T08:51:09;42.70;;;18.17;;
19187;SDS011;9726;52.198;8.792;2022-12-18T08:53:37;48.87;;;17.57;;
19187;SDS011;9726;52.198;8.792;2022-12-18T08:56:05;46.87;;;18.03;;
19187;SDS011;9726;52.198;8.792;2022-12-18T08:58:32;46.00;;;18.07;;
19187;SDS011;9726;52.198;8.792;2022-12-18T09:01:03;44.43;;;17.47;;
19187;SDS011;9726;52.198;8.792;2022-12-18T09:03:31;37.53;;;17.83;;
19187;SDS011;9726;52.198;8.792;2022-12-18T09:05:59;95.43;;;34.63;;
19187;SDS011;9726;52.198;8.792;2022-12-18T09:08:26;44.23;;;18.20;;
19187;SDS011;9726;52.198;8.792;2022-12-18T09:10:54;39.57;;;16.00;;
19187;SDS011;9726;52.198;8.792;2022-12-18T09:13:21;33.53;;;15.60;;
19187;SDS011;9726;52.198;8.792;2022-12-18T09:15:50;27.07;;;12.87;;
19187;SDS011;9726;52.198;8.792;2022-12-18T09:18:18;35.33;;;17.10;;
19187;SDS011;9726;52.198;8.792;2022-12-18T09:20:45;33.23;;;17.10;;
19187;SDS011;9726;52.198;8.792;2022-12-18T09:23:13;51.53;;;23.58;;
19187;SDS011;9726;52.198;8.792;2022-12-18T09:25:41;40.53;;;19.83;;
19187;SDS011;9726;52.198;8.792;2022-12-18T09:28:12;34.53;;;17.60;;
19187;SDS011;9726;52.198;8.792;2022-12-18T09:30:41;36.60;;;16.20;;
19187;SDS011;9726;52.198;8.792;2022-12-18T09:33:09;47.67;;;18.77;;
19187;SDS011;9726;52.198;8.792;2022-12-18T09:35:37;47.08;;;20.20;;
19187;SDS011;9726;52.198;8.792;2022-12-18T09:38:06;30.57;;;15.57;;
19187;SDS011;9726;52.198;8.792;2022-12-18T09:40:45;17.50;;;10.73;;
19187;SDS011;9726;52.198;8.792;2022-12-18T09:43:15;19.87;;;8.20;;
19187;SDS011;9726;52.198;8.792;2022-12-18T09:45:46;8.63;;;4.73;;
19187;SDS011;9726;52.198;8.792;2022-12-18T09:48:58;10.93;;;5.57;;
19187;SDS011;9726;52.198;8.792;2022-12-18T09:51:09;14.00;;;5.17;;
19187;SDS011;9726;52.198;8.792;2022-12-18T09:53:39;7.30;;;4.67;;
19187;SDS011;9726;52.198;8.792;2022-12-18T09:56:10;7.93;;;4.97;;
19187;SDS011;9726;52.198;8.792;2022-12-18T09:58:45;12.80;;;6.80;;
19187;SDS011;9726;52.198;8.792;2022-12-18T10:01:15;10.30;;;5.33;;
19187;SDS011;9726;52.198;8.792;2022-12-18T10:03:44;13.00;;;5.53;;
19187;SDS011;9726;52.198;8.792;2022-12-18T10:06:18;7.70;;;4.60;;
19187;SDS011;9726;52.198;8.792;2022-12-18T10:09:07;11.97;;;5.57;;
19187;SDS011;9726;52.198;8.792;2022-12-18T10:14:16;10.70;;;4.57;;
19187;SDS011;9726;52.198;8.792;2022-12-18T10:19:34;9.73;;;4.10;;
19187;SDS011;9726;52.198;8.792;2022-12-18T10:25:06;10.63;;;5.40;;
19187;SDS011;9726;52.198;8.792;2022-12-18T10:27:40;11.00;;;5.33;;
19187;SDS011;9726;52.198;8.792;2022-12-18T10:30:17;7.67;;;4.70;;
19187;SDS011;9726;52.198;8.792;2022-12-18T10:32:45;13.57;;;4.43;;
19187;SDS011;9726;52.198;8.792;2022-12-18T10:35:16;13.63;;;7.70;;
19187;SDS011;9726;52.198;8.792;2022-12-18T10:40:27;17.67;;;7.47;;
19187;SDS011;9726;52.198;8.792;2022-12-18T10:43:04;14.23;;;7.80;;
19187;SDS011;9726;52.198;8.792;2022-12-18T10:45:32;15.13;;;5.80;;
19187;SDS011;9726;52.198;8.792;2022-12-18T10:48:00;19.20;;;10.00;;
19187;SDS011;9726;52.198;8.792;2022-12-18T10:50:32;14.27;;;8.80;;
19187;SDS011;9726;52.198;8.792;2022-12-18T10:53:21;19.43;;;7.20;;
19187;SDS011;9726;52.198;8.792;2022-12-18T10:55:49;30.70;;;11.87;;
19187;SDS011;9726;52.198;8.792;2022-12-18T11:01:01;17.97;;;9.10;;
19187;SDS011;9726;52.198;8.792;2022-12-18T11:03:33;19.63;;;9.47;;
19187;SDS011;9726;52.198;8.792;2022-12-18T11:06:13;24.07;;;9.73;;
19187;SDS011;9726;52.198;8.792;2022-12-18T11:08:42;16.37;;;9.13;;
19187;SDS011;9726;52.198;8.792;2022-12-18T11:11:20;21.87;;;8.90;;
19187;SDS011;9726;52.198;8.792;2022-12-18T11:13:57;20.07;;;9.93;;
19187;SDS011;9726;52.198;8.792;2022-12-18T11:16:26;21.10;;;9.80;;
19187;SDS011;9726;52.198;8.792;2022-12-18T11:18:53;19.43;;;9.27;;
19187;SDS011;9726;52.198;8.792;2022-12-18T11:21:20;21.07;;;7.27;;
19187;SDS011;9726;52.198;8.792;2022-12-18T11:23:51;14.10;;;6.80;;
19187;SDS011;9726;52.198;8.792;2022-12-18T11:26:19;10.20;;;4.67;;
19187;SDS011;9726;52.198;8.792;2022-12-18T11:31:25;10.53;;;4.57;;
19187;SDS011;9726;52.198;8.792;2022-12-18T11:34:02;17.07;;;7.70;;
19187;SDS011;9726;52.198;8.792;2022-12-18T11:36:51;8.80;;;4.50;;
19187;SDS011;9726;52.198;8.792;2022-12-18T11:39:30;14.13;;;6.47;;
19187;SDS011;9726;52.198;8.792;2022-12-18T11:42:00;13.63;;;4.33;;
19187;SDS011;9726;52.198;8.792;2022-12-18T11:47:14;16.93;;;6.33;;
19187;SDS011;9726;52.198;8.792;2022-12-18T11:49:42;17.50;;;6.40;;
19187;SDS011;9726;52.198;8.792;2022-12-18T11:52:18;13.67;;;6.33;;
19187;SDS011;9726;52.198;8.792;2022-12-18T11:54:46;11.33;;;5.77;;
19187;SDS011;9726;52.198;8.792;2022-12-18T12:08:00;12.20;;;7.07;;
19187;SDS011;9726;52.198;8.792;2022-12-18T12:10:40;11.47;;;6.27;;
19187;SDS011;9726;52.198;8.792;2022-12-18T12:13:16;15.87;;;7.10;;
19187;SDS011;9726;52.198;8.792;2022-12-18T12:18:23;12.40;;;6.27;;
19187;SDS011;9726;52.198;8.792;2022-12-18T12:26:12;17.47;;;7.73;;
19187;SDS011;9726;52.198;8.792;2022-12-18T12:39:08;15.70;;;9.37;;
19187;SDS011;9726;52.198;8.792;2022-12-18T12:41:40;23.33;;;10.03;;
19187;SDS011;9726;52.198;8.792;2022-12-18T12:44:28;20.83;;;9.40;;
19187;SDS011;9726;52.198;8.792;2022-12-18T12:46:58;18.90;;;9.50;;
19187;SDS011;9726;52.198;8.792;2022-12-18T12:49:27;26.13;;;11.53;;
19187;SDS011;9726;52.198;8.792;2022-12-18T12:51:58;19.30;;;10.30;;
19187;SDS011;9726;52.198;8.792;2022-12-18T12:54:27;23.47;;;10.80;;
19187;SDS011;9726;52.198;8.792;2022-12-18T13:02:10;22.47;;;8.83;;
19187;SDS011;9726;52.198;8.792;2022-12-18T13:04:49;22.53;;;11.70;;
19187;SDS011;9726;52.198;8.792;2022-12-18T13:07:24;18.77;;;9.23;;
19187;SDS011;9726;52.198;8.792;2022-12-18T13:10:19;17.37;;;6.97;;
19187;SDS011;9726;52.198;8.792;2022-12-18T13:13:05;20.40;;;10.23;;
19187;SDS011;9726;52.198;8.792;2022-12-18T13:25:53;19.50;;;10.40;;
19187;SDS011;9726;52.198;8.792;2022-12-18T13:28:49;22.00;;;9.63;;
19187;SDS011;9726;52.198;8.792;2022-12-18T13:31:09;25.13;;;10.90;;
19187;SDS011;9726;52.198;8.792;2022-12-18T13:33:43;19.80;;;10.70;;
19187;SDS011;9726;52.198;8.792;2022-12-18T13:36:32;22.53;;;10.40;;
19187;SDS011;9726;52.198;8.792;2022-12-18T13:44:57;22.83;;;9.73;;
19187;SDS011;9726;52.198;8.792;2022-12-18T13:49:52;16.50;;;9.07;;
19187;SDS011;9726;52.198;8.792;2022-12-18T13:52:26;17.53;;;7.30;;
19187;SDS011;9726;52.198;8.792;2022-12-18T13:54:56;18.40;;;8.53;;
19187;SDS011;9726;52.198;8.792;2022-12-18T13:57:27;24.93;;;10.27;;
19187;SDS011;9726;52.198;8.792;2022-12-18T13:59:55;14.67;;;8.53;;
19187;SDS011;9726;52.198;8.792;2022-12-18T14:02:25;20.27;;;9.93;;
19187;SDS011;9726;52.198;8.792;2022-12-18T14:04:53;19.93;;;10.30;;
19187;SDS011;9726;52.198;8.792;2022-12-18T14:07:22;23.73;;;9.07;;
19187;SDS011;9726;52.198;8.792;2022-12-18T14:09:50;11.80;;;4.93;;
19187;SDS011;9726;52.198;8.792;2022-12-18T14:12:28;9.20;;;5.83;;
19187;SDS011;9726;52.198;8.792;2022-12-18T14:17:43;14.83;;;6.13;;
19187;SDS011;9726;52.198;8.792;2022-12-18T14:20:14;12.70;;;5.83;;
19187;SDS011;9726;52.198;8.792;2022-12-18T14:22:45;14.40;;;6.83;;
19187;SDS011;9726;52.198;8.792;2022-12-18T14:25:14;13.07;;;6.80;;
19187;SDS011;9726;52.198;8.792;2022-12-18T14:27:43;19.27;;;9.30;;
19187;SDS011;9726;52.198;8.792;2022-12-18T14:30:24;18.20;;;8.67;;
19187;SDS011;9726;52.198;8.792;2022-12-18T14:33:05;25.63;;;9.37;;
19187;SDS011;9726;52.198;8.792;2022-12-18T14:36:17;25.87;;;9.53;;
19187;SDS011;9726;52.198;8.792;2022-12-18T14:43:26;19.90;;;9.80;;
19187;SDS011;9726;52.198;8.792;2022-12-18T14:45:54;20.30;;;10.10;;
19187;SDS011;9726;52.198;8.792;2022-12-18T14:48:32;25.43;;;10.03;;
19187;SDS011;9726;52.198;8.792;2022-12-18T14:51:01;18.40;;;9.80;;
19187;SDS011;9726;52.198;8.792;2022-12-18T14:53:32;25.90;;;11.10;;
19187;SDS011;9726;52.198;8.792;2022-12-18T14:56:00;22.13;;;10.47;;
19187;SDS011;9726;52.198;8.792;2022-12-18T14:59:05;24.67;;;10.63;;
19187;SDS011;9726;52.198;8.792;2022-12-18T15:01:44;15.97;;;7.97;;
19187;SDS011;9726;52.198;8.792;2022-12-18T15:04:58;16.73;;;7.53;;
19187;SDS011;9726;52.198;8.792;2022-12-18T15:07:02;22.50;;;9.33;;
19187;SDS011;9726;52.198;8.792;2022-12-18T15:09:30;21.43;;;9.93;;
19187;SDS011;9726;52.198;8.792;2022-12-18T15:11:58;19.80;;;10.60;;
19187;SDS011;9726;52.198;8.792;2022-12-18T15:16:57;30.63;;;11.70;;
19187;SDS011;9726;52.198;8.792;2022-12-18T15:19:28;23.70;;;9.37;;
19187;SDS011;9726;52.198;8.792;2022-12-18T15:21:59;19.33;;;9.23;;
19187;SDS011;9726;52.198;8.792;2022-12-18T15:24:32;22.03;;;8.37;;
19187;SDS011;9726;52.198;8.792;2022-12-18T15:26:59;15.40;;;7.90;;
19187;SDS011;9726;52.198;8.792;2022-12-18T15:29:27;12.13;;;6.80;;
19187;SDS011;9726;52.198;8.792;2022-12-18T15:32:01;12.67;;;6.63;;
19187;SDS011;9726;52.198;8.792;2022-12-18T15:34:29;18.40;;;7.60;;
19187;SDS011;9726;52.198;8.792;2022-12-18T15:36:57;14.03;;;6.90;;
19187;SDS011;9726;52.198;8.792;2022-12-18T15:39:25;12.57;;;5.77;;
19187;SDS011;9726;52.198;8.792;2022-12-18T15:41:52;13.97;;;6.40;;
19187;SDS011;9726;52.198;8.792;2022-12-18T15:44:38;16.57;;;6.80;;
19187;SDS011;9726;52.198;8.792;2022-12-18T15:47:09;11.53;;;6.80;;
19187;SDS011;9726;52.198;8.792;2022-12-18T15:49:37;11.47;;;6.67;;
19187;SDS011;9726;52.198;8.792;2022-12-18T15:52:04;11.20;;;6.40;;
19187;SDS011;9726;52.198;8.792;2022-12-18T15:54:32;16.20;;;7.73;;
19187;SDS011;9726;52.198;8.792;2022-12-18T15:57:18;11.43;;;6.57;;
19187;SDS011;9726;52.198;8.792;2022-12-18T15:59:52;16.63;;;7.63;;
19187;SDS011;9726;52.198;8.792;2022-12-18T16:02:22;13.53;;;7.33;;
19187;SDS011;9726;52.198;8.792;2022-12-18T16:04:50;21.80;;;7.60;;
19187;SDS011;9726;52.198;8.792;2022-12-18T16:07:18;18.27;;;7.43;;
19187;SDS011;9726;52.198;8.792;2022-12-18T16:09:51;15.10;;;7.13;;
19187;SDS011;9726;52.198;8.792;2022-12-18T16:12:21;19.73;;;8.10;;
19187;SDS011;9726;52.198;8.792;2022-12-18T16:14:49;23.70;;;8.30;;
19187;SDS011;9726;52.198;8.792;2022-12-18T16:17:16;12.40;;;6.93;;
19187;SDS011;9726;52.198;8.792;2022-12-18T16:19:44;17.23;;;8.20;;
19187;SDS011;9726;52.198;8.792;2022-12-18T16:22:20;16.37;;;7.83;;
19187;SDS011;9726;52.198;8.792;2022-12-18T16:24:48;16.57;;;8.43;;
19187;SDS011;9726;52.198;8.792;2022-12-18T16:27:16;16.87;;;8.20;;
19187;SDS011;9726;52.198;8.792;2022-12-18T16:29:43;16.57;;;8.67;;
19187;SDS011;9726;52.198;8.792;2022-12-18T16:32:12;12.10;;;7.03;;
19187;SDS011;9726;52.198;8.792;2022-12-18T16:34:39;19.07;;;7.77;;
19187;SDS011;9726;52.198;8.792;2022-12-18T16:37:08;19.93;;;8.70;;
19187;SDS011;9726;52.198;8.792;2022-12-18T16:39:36;17.50;;;8.17;;
19187;SDS011;9726;52.198;8.792;2022-12-18T16:42:05;20.13;;;8.47;;